Time;durP1;ratioP1;P1;durP2;ratioP2;P2;SDS_P1;SDS_P2;PMS_P1;PMS_P2;Temp;Humidity;BMP_temperature;BMP_pressure;BME280_temperature;BME280_humidity;BME280_pressure;Samples;Min_cycle;Max_cycle;Signal;HPM_P1;HPM_P2
2023/12/12 00:01:34;;;;;;;23.20;15.00;;;;;;;-0.94;100.00;99841.12;88540;281;137189;-68
2023/12/12 00:03:36;;;;;;;24.20;14.90;;;;;;;-0.93;100.00;99839.81;88625;273;24094;-68
2023/12/12 00:05:38;;;;;;;23.10;15.20;;;;;;;-0.93;100.00;99834.86;88550;274;137104;-69
2023/12/12 00:07:40;;;;;;;18.50;13.80;;;;;;;-0.91;100.00;99836.80;88647;283;22524;-67
2023/12/12 00:09:42;;;;;;;20.70;15.20;;;;;;;-0.89;100.00;99839.56;88400;282;137185;-67
2023/12/12 00:11:44;;;;;;;21.30;14.10;;;;;;;-0.86;100.00;99838.81;88659;273;25083;-65
2023/12/12 00:13:46;;;;;;;23.00;16.00;;;;;;;-0.85;100.00;99837.52;88581;274;137472;-69
2023/12/12 00:15:48;;;;;;;18.90;13.20;;;;;;;-0.82;100.00;99838.54;88572;280;22733;-66
2023/12/12 00:17:51;;;;;;;20.60;13.60;;;;;;;-0.83;100.00;99835.28;88459;273;137304;-69
2023/12/12 00:19:53;;;;;;;21.60;13.90;;;;;;;-0.85;100.00;99838.78;88489;280;25377;-66
2023/12/12 00:21:55;;;;;;;18.40;12.70;;;;;;;-0.88;100.00;99839.73;88464;280;136869;-65
2023/12/12 00:23:57;;;;;;;16.30;11.60;;;;;;;-0.94;100.00;99839.48;88572;281;22545;-66
2023/12/12 00:25:59;;;;;;;20.40;13.50;;;;;;;-0.99;100.00;99836.93;88490;281;137037;-67
2023/12/12 00:28:02;;;;;;;21.80;14.10;;;;;;;-1.00;100.00;99845.02;88513;274;25211;-66
2023/12/12 00:30:05;;;;;;;20.20;14.00;;;;;;;-0.99;100.00;99844.61;88637;281;22530;-65
2023/12/12 00:32:07;;;;;;;18.90;13.00;;;;;;;-0.98;100.00;99844.85;88648;273;137168;-65
2023/12/12 00:34:09;;;;;;;21.90;15.20;;;;;;;-0.97;100.00;99842.73;88541;274;22599;-65
2023/12/12 00:36:11;;;;;;;20.10;13.10;;;;;;;-0.97;100.00;99849.34;88500;281;138402;-67
2023/12/12 00:38:13;;;;;;;22.00;14.60;;;;;;;-0.97;100.00;99848.84;88604;278;24035;-69
2023/12/12 00:40:15;;;;;;;25.50;15.60;;;;;;;-0.96;100.00;99847.20;88687;281;137058;-67
2023/12/12 00:42:17;;;;;;;21.60;14.10;;;;;;;-0.96;100.00;99838.65;88674;281;25096;-66
2023/12/12 00:44:19;;;;;;;24.60;15.00;;;;;;;-0.99;100.00;99838.16;88597;277;138352;-72
2023/12/12 00:46:21;;;;;;;21.90;13.70;;;;;;;-0.99;100.00;99841.45;88599;273;22553;-68
2023/12/12 00:48:23;;;;;;;21.90;15.00;;;;;;;-1.01;100.00;99838.80;88453;273;138491;-65
2023/12/12 00:50:26;;;;;;;18.90;13.80;;;;;;;-1.03;100.00;99832.88;88554;282;22523;-67
2023/12/12 00:52:29;;;;;;;22.90;14.70;;;;;;;-1.06;100.00;99832.77;88390;274;138021;-68
2023/12/12 00:54:32;;;;;;;20.10;14.00;;;;;;;-1.11;100.00;99837.05;88787;277;24015;-70
2023/12/12 00:56:34;;;;;;;20.30;12.60;;;;;;;-1.18;100.00;99834.45;88520;274;137201;-69
2023/12/12 00:58:36;;;;;;;18.90;12.00;;;;;;;-1.26;100.00;99833.00;88445;279;22558;-67
2023/12/12 01:00:38;;;;;;;21.10;14.40;;;;;;;-1.33;100.00;99839.52;88401;277;138572;-67
2023/12/12 01:02:40;;;;;;;23.20;14.70;;;;;;;-1.35;100.00;99833.95;88594;281;24020;-68
2023/12/12 01:04:43;;;;;;;17.50;12.80;;;;;;;-1.35;100.00;99832.40;88537;281;137486;-68
2023/12/12 01:06:47;;;;;;;19.50;11.70;;;;;;;-1.34;100.00;99824.99;88646;281;22539;-66
2023/12/12 01:08:51;;;;;;;20.20;12.20;;;;;;;-1.36;100.00;99818.83;88490;281;137268;-69
2023/12/12 01:10:53;;;;;;;19.70;13.80;;;;;;;-1.35;100.00;99816.88;88718;277;25172;-67
2023/12/12 01:12:54;;;;;;;18.90;12.80;;;;;;;-1.43;100.00;99802.33;88387;273;136870;-67
2023/12/12 01:14:58;;;;;;;21.00;13.80;;;;;;;-1.39;100.00;99808.76;88728;281;25160;-66
2023/12/12 01:17:03;;;;;;;18.00;12.60;;;;;;;-1.38;100.00;99803.85;88594;277;137373;-67
2023/12/12 01:19:05;;;;;;;21.30;12.70;;;;;;;-1.38;100.00;99798.21;88878;277;24014;-66
2023/12/12 01:21:07;;;;;;;18.60;12.10;;;;;;;-1.36;100.00;99797.91;88493;273;137057;-66
2023/12/12 01:23:10;;;;;;;18.20;12.50;;;;;;;-1.37;100.00;99801.98;88730;273;22545;-63
2023/12/12 01:25:12;;;;;;;19.80;12.10;;;;;;;-1.43;100.00;99800.75;88574;277;137196;-68
2023/12/12 01:27:14;;;;;;;19.20;13.10;;;;;;;-1.44;100.00;99798.18;88653;273;22520;-68
2023/12/12 01:29:17;;;;;;;22.70;13.50;;;;;;;-1.45;100.00;99795.99;88356;273;137113;-63
2023/12/12 01:31:19;;;;;;;21.10;14.20;;;;;;;-1.45;100.00;99792.02;88560;273;25140;-74
2023/12/12 01:33:23;;;;;;;21.00;13.20;;;;;;;-1.44;100.00;99790.02;88868;280;137034;-67
2023/12/12 01:35:25;;;;;;;26.20;13.70;;;;;;;-1.43;100.00;99791.02;88635;273;24053;-66
2023/12/12 01:37:27;;;;;;;20.00;11.90;;;;;;;-1.44;100.00;99788.95;88575;273;136939;-67
2023/12/12 01:39:29;;;;;;;18.20;11.30;;;;;;;-1.46;100.00;99787.43;88616;272;22552;-67
2023/12/12 01:41:31;;;;;;;20.00;12.70;;;;;;;-1.49;100.00;99777.36;88505;277;137267;-69
2023/12/12 01:43:34;;;;;;;25.60;14.20;;;;;;;-1.49;100.00;99776.48;88577;273;22532;-66
2023/12/12 01:45:36;;;;;;;24.20;13.90;;;;;;;-1.51;100.00;99777.36;88570;274;137063;-69
2023/12/12 01:47:38;;;;;;;21.70;13.00;;;;;;;-1.52;100.00;99774.30;88644;280;22531;-68
2023/12/12 01:49:41;;;;;;;19.30;12.90;;;;;;;-1.53;100.00;99774.38;88784;274;137120;-67
2023/12/12 01:51:45;;;;;;;19.00;12.80;;;;;;;-1.53;100.00;99771.41;88601;281;24227;-68
2023/12/12 01:53:51;;;;;;;21.60;13.10;;;;;;;-1.52;100.00;99768.59;88511;281;137018;-66
2023/12/12 01:55:55;;;;;;;20.00;13.20;;;;;;;-1.55;100.00;99766.19;88558;273;22537;-67
2023/12/12 01:57:57;;;;;;;19.50;12.50;;;;;;;-1.57;100.00;99769.33;88498;280;136834;-64
2023/12/12 02:00:00;;;;;;;21.80;13.70;;;;;;;-1.59;100.00;99773.30;88694;274;22557;-68
2023/12/12 02:02:02;;;;;;;21.20;12.80;;;;;;;-1.59;100.00;99766.51;88588;278;136500;-71
2023/12/12 02:04:06;;;;;;;20.30;13.00;;;;;;;-1.65;100.00;99749.42;88532;277;137739;-66
2023/12/12 02:06:09;;;;;;;20.60;14.20;;;;;;;-1.59;100.00;99752.18;88903;280;26214;-64
2023/12/12 02:08:11;;;;;;;19.80;13.00;;;;;;;-1.56;100.00;99752.52;88696;277;137207;-67
2023/12/12 02:10:13;;;;;;;23.50;14.30;;;;;;;-1.57;100.00;99748.56;88523;277;22533;-69
2023/12/12 02:12:15;;;;;;;17.90;12.30;;;;;;;-1.56;100.00;99747.60;88284;275;137087;-67
2023/12/12 02:14:17;;;;;;;21.20;13.30;;;;;;;-1.57;100.00;99746.98;88591;281;24055;-66
2023/12/12 02:16:19;;;;;;;19.70;13.50;;;;;;;-1.57;100.00;99749.11;88528;281;138264;-69
2023/12/12 02:18:21;;;;;;;18.70;12.90;;;;;;;-1.53;100.00;99750.38;88571;273;25277;-67
2023/12/12 02:20:23;;;;;;;23.20;14.60;;;;;;;-1.48;100.00;99749.75;88321;283;136632;-70
2023/12/12 02:22:26;;;;;;;19.10;12.40;;;;;;;-1.47;100.00;99745.52;88641;281;22679;-71
2023/12/12 02:24:28;;;;;;;18.60;11.70;;;;;;;-1.48;100.00;99745.44;88532;273;136935;-70
2023/12/12 02:26:31;;;;;;;18.30;12.90;;;;;;;-1.50;100.00;99738.78;88579;277;22545;-71
2023/12/12 02:28:33;;;;;;;17.40;12.50;;;;;;;-1.53;100.00;99739.52;88490;281;137071;-69
2023/12/12 02:30:35;;;;;;;20.90;12.80;;;;;;;-1.53;100.00;99734.11;88693;281;22530;-68
2023/12/12 02:32:37;;;;;;;19.60;12.70;;;;;;;-1.52;100.00;99730.71;88651;281;137329;-72
2023/12/12 02:34:40;;;;;;;21.10;15.30;;;;;;;-1.50;100.00;99732.49;88622;274;24027;-70
2023/12/12 02:36:43;;;;;;;17.70;12.50;;;;;;;-1.50;100.00;99734.61;88613;277;136817;-68
2023/12/12 02:38:45;;;;;;;19.00;12.00;;;;;;;-1.53;100.00;99737.45;88595;281;22638;-68
2023/12/12 02:40:47;;;;;;;15.90;12.70;;;;;;;-1.59;100.00;99736.36;88486;281;136904;-71
2023/12/12 02:42:51;;;;;;;19.10;12.90;;;;;;;-1.60;100.00;99734.88;88671;281;22537;-71
2023/12/12 02:44:56;;;;;;;18.60;13.20;;;;;;;-1.61;100.00;99738.59;88752;278;137533;-69
2023/12/12 02:46:58;;;;;;;20.20;12.30;;;;;;;-1.60;100.00;99738.36;88852;281;22704;-72
2023/12/12 02:49:00;;;;;;;21.30;15.20;;;;;;;-1.61;100.00;99736.66;88507;274;137191;-73
2023/12/12 02:51:03;;;;;;;18.70;12.60;;;;;;;-1.63;100.00;99736.83;88446;275;26232;-72
2023/12/12 02:53:05;;;;;;;25.00;14.70;;;;;;;-1.64;100.00;99732.27;88600;274;137098;-69
2023/12/12 02:55:08;;;;;;;20.30;12.20;;;;;;;-1.69;100.00;99728.79;88442;283;25121;-71
2023/12/12 02:57:10;;;;;;;22.40;13.80;;;;;;;-1.72;100.00;99726.83;88516;281;137198;-73
2023/12/12 02:59:12;;;;;;;17.40;11.00;;;;;;;-1.75;100.00;99722.36;88518;273;22523;-68
2023/12/12 03:01:14;;;;;;;20.10;12.90;;;;;;;-1.78;100.00;99714.38;88343;275;137027;-70
2023/12/12 03:03:16;;;;;;;25.60;15.70;;;;;;;-1.81;100.00;99710.21;88596;280;24160;-71
2023/12/12 03:05:18;;;;;;;19.70;13.10;;;;;;;-1.82;100.00;99705.61;87594;275;911745;-70
2023/12/12 03:07:20;;;;;;;26.10;14.40;;;;;;;-1.80;100.00;99707.95;88506;282;24122;-71
2023/12/12 03:09:22;;;;;;;24.30;14.10;;;;;;;-1.79;100.00;99707.45;88487;281;138479;-69
2023/12/12 03:11:24;;;;;;;23.70;15.10;;;;;;;-1.77;100.00;99708.73;88496;277;25177;-69
2023/12/12 03:13:26;;;;;;;23.80;16.00;;;;;;;-1.76;100.00;99710.93;88478;273;137387;-69
2023/12/12 03:15:28;;;;;;;24.20;14.60;;;;;;;-1.76;100.00;99712.48;88650;281;22544;-69
2023/12/12 03:17:31;;;;;;;23.00;13.30;;;;;;;-1.77;100.00;99717.40;88545;280;138229;-71
2023/12/12 03:19:33;;;;;;;22.00;14.50;;;;;;;-1.79;100.00;99720.73;88572;280;24032;-69
2023/12/12 03:21:36;;;;;;;27.20;18.60;;;;;;;-1.83;100.00;99733.61;88375;273;137091;-71
2023/12/12 03:23:40;;;;;;;23.20;15.90;;;;;;;-1.85;100.00;99729.41;88500;277;22553;-73
2023/12/12 03:25:42;;;;;;;23.00;15.50;;;;;;;-1.83;100.00;99726.46;88336;281;137148;-70
2023/12/12 03:27:44;;;;;;;23.30;14.40;;;;;;;-1.82;100.00;99725.48;88391;282;25155;-69
2023/12/12 03:29:46;;;;;;;27.40;14.80;;;;;;;-1.78;100.00;99724.84;88660;273;137358;-70
2023/12/12 03:31:48;;;;;;;22.40;12.70;;;;;;;-1.77;100.00;99729.77;88663;275;22602;-71
2023/12/12 03:33:50;;;;;;;23.30;15.70;;;;;;;-1.78;100.00;99733.36;88522;274;136954;-68
2023/12/12 03:35:52;;;;;;;23.80;14.40;;;;;;;-1.78;100.00;99726.73;88594;275;24091;-69
2023/12/12 03:37:54;;;;;;;22.50;14.10;;;;;;;-1.79;100.00;99726.98;88436;281;136689;-71
2023/12/12 03:39:56;;;;;;;23.10;13.80;;;;;;;-1.78;100.00;99733.33;88581;273;25191;-71
2023/12/12 03:41:58;;;;;;;23.40;14.60;;;;;;;-1.80;100.00;99733.19;88394;281;136943;-72
2023/12/12 03:44:01;;;;;;;25.20;15.70;;;;;;;-1.81;100.00;99722.77;88517;278;25118;-74
2023/12/12 03:46:04;;;;;;;23.70;14.60;;;;;;;-1.79;100.00;99721.09;88505;273;25216;-74
2023/12/12 03:48:06;;;;;;;25.20;14.70;;;;;;;-1.80;100.00;99726.05;88507;273;138620;-71
2023/12/12 03:50:09;;;;;;;22.70;14.20;;;;;;;-1.83;100.00;99729.39;88584;280;24054;-73
2023/12/12 03:52:11;;;;;;;23.10;14.50;;;;;;;-1.83;100.00;99731.37;88592;273;137365;-73
2023/12/12 03:54:13;;;;;;;24.80;16.00;;;;;;;-1.82;100.00;99735.27;88547;281;23107;-73
2023/12/12 03:56:15;;;;;;;24.20;13.90;;;;;;;-1.80;100.00;99734.17;88388;277;139029;-73
2023/12/12 03:58:17;;;;;;;26.10;15.70;;;;;;;-1.80;100.00;99729.49;88589;281;22527;-71
2023/12/12 04:00:21;;;;;;;24.20;14.10;;;;;;;-1.81;100.00;99735.86;88420;272;137815;-72
2023/12/12 04:02:24;;;;;;;26.60;15.60;;;;;;;-1.87;100.00;99732.66;88571;280;22538;-72
2023/12/12 04:04:26;;;;;;;21.60;14.30;;;;;;;-1.91;100.00;99731.83;88539;273;136981;-72
2023/12/12 04:06:28;;;;;;;25.10;15.90;;;;;;;-1.92;100.00;99727.87;88598;281;24049;-73
2023/12/12 04:08:30;;;;;;;27.30;13.90;;;;;;;-1.91;100.00;99734.64;88491;281;137104;-67
2023/12/12 04:10:33;;;;;;;24.50;16.20;;;;;;;-1.92;100.00;99729.25;88629;281;22587;-72
2023/12/12 04:12:36;;;;;;;25.90;16.60;;;;;;;-1.86;100.00;99736.12;88720;281;137099;-69
2023/12/12 04:14:38;;;;;;;24.10;15.70;;;;;;;-1.83;100.00;99730.09;88579;281;22539;-72
2023/12/12 04:16:40;;;;;;;30.60;17.30;;;;;;;-1.81;100.00;99728.40;88258;279;138998;-71
2023/12/12 04:18:44;;;;;;;25.20;16.10;;;;;;;-1.88;100.00;99717.65;89010;281;22551;-71
2023/12/12 04:20:46;;;;;;;24.20;15.80;;;;;;;-1.78;100.00;99736.16;88411;281;136962;-69
2023/12/12 04:22:48;;;;;;;25.90;16.10;;;;;;;-1.77;100.00;99732.71;88385;279;22554;-70
2023/12/12 04:24:50;;;;;;;28.30;17.00;;;;;;;-1.76;100.00;99731.62;88425;282;136450;-70
2023/12/12 04:26:52;;;;;;;28.70;17.10;;;;;;;-1.76;100.00;99734.25;88714;274;25210;-72
2023/12/12 04:28:58;;;;;;;23.00;15.20;;;;;;;-1.82;100.00;99737.86;88512;277;137050;-71
2023/12/12 04:30:59;;;;;;;28.40;17.30;;;;;;;-1.85;100.00;99739.48;88612;273;25117;-69
2023/12/12 04:33:02;;;;;;;24.40;16.30;;;;;;;-1.86;100.00;99740.93;88460;281;137755;-71
2023/12/12 04:35:10;;;;;;;25.60;16.60;;;;;;;-1.87;100.00;99735.64;88582;274;23985;-71
2023/12/12 04:37:12;;;;;;;23.80;13.50;;;;;;;-1.86;100.00;99735.23;88450;275;136990;-73
2023/12/12 04:39:17;;;;;;;24.40;15.00;;;;;;;-1.86;100.00;99742.05;88739;273;22467;-67
2023/12/12 04:41:19;;;;;;;27.30;16.10;;;;;;;-1.88;100.00;99749.83;88632;275;137021;-67
2023/12/12 04:43:22;;;;;;;25.30;15.10;;;;;;;-1.90;100.00;99750.52;88551;273;22565;-70
2023/12/12 04:45:24;;;;;;;28.70;18.50;;;;;;;-1.91;100.00;99752.84;88476;274;136935;-69
2023/12/12 04:47:26;;;;;;;28.00;18.00;;;;;;;-1.91;100.00;99755.45;88509;275;22775;-71
2023/12/12 04:49:28;;;;;;;30.10;18.20;;;;;;;-1.92;100.00;99754.88;88575;274;137080;-72
2023/12/12 04:51:30;;;;;;;28.70;17.80;;;;;;;-1.96;100.00;99758.67;88635;273;24138;-70
2023/12/12 04:53:33;;;;;;;28.40;18.40;;;;;;;-1.97;100.00;99762.42;88470;280;137029;-73
2023/12/12 04:55:35;;;;;;;32.60;19.40;;;;;;;-1.98;100.00;99760.36;88579;279;22574;-72
2023/12/12 04:57:38;;;;;;;29.20;18.20;;;;;;;-2.03;100.00;99746.20;88451;277;137213;-72
2023/12/12 04:59:40;;;;;;;29.10;16.50;;;;;;;-1.92;100.00;99765.52;88575;275;24028;-71
2023/12/12 05:01:42;;;;;;;25.00;16.30;;;;;;;-1.90;100.00;99762.74;88238;273;136985;-69
2023/12/12 05:03:45;;;;;;;24.50;15.70;;;;;;;-1.98;100.00;99749.39;88556;277;24077;-72
2023/12/12 05:05:48;;;;;;;28.40;15.90;;;;;;;-1.92;100.00;99758.17;88401;273;137225;-71
2023/12/12 05:07:51;;;;;;;24.00;13.80;;;;;;;-1.98;100.00;99761.95;88479;273;24073;-69
2023/12/12 05:09:53;;;;;;;23.50;14.70;;;;;;;-2.03;100.00;99756.58;88291;274;137025;-70
2023/12/12 05:11:55;;;;;;;22.60;14.20;;;;;;;-2.05;100.00;99753.14;88311;273;22530;-69
2023/12/12 05:13:57;;;;;;;23.50;14.00;;;;;;;-2.05;100.00;99755.06;88273;281;137408;-68
2023/12/12 05:15:59;;;;;;;24.40;14.80;;;;;;;-2.04;100.00;99755.52;88396;273;22537;-69
2023/12/12 05:18:07;;;;;;;23.80;13.40;;;;;;;-2.03;100.00;99751.59;88389;273;22540;-68
2023/12/12 05:20:11;;;;;;;23.60;14.30;;;;;;;-2.04;100.00;99759.31;88285;273;138695;-71
2023/12/12 05:22:13;;;;;;;21.80;13.80;;;;;;;-2.05;100.00;99756.96;88521;277;22630;-70
2023/12/12 05:24:16;;;;;;;24.30;13.70;;;;;;;-2.07;100.00;99757.96;88358;274;137295;-67
2023/12/12 05:26:18;;;;;;;25.10;15.40;;;;;;;-2.06;100.00;99758.23;88397;279;22540;-72
2023/12/12 05:28:21;;;;;;;21.60;13.20;;;;;;;-2.07;100.00;99755.51;88322;273;137431;-70
2023/12/12 05:30:23;;;;;;;25.20;15.00;;;;;;;-2.07;100.00;99754.69;88730;277;25224;-71
2023/12/12 05:32:25;;;;;;;23.10;14.80;;;;;;;-2.19;100.00;99737.66;88345;274;137175;-70
2023/12/12 05:34:27;;;;;;;21.70;13.60;;;;;;;-2.14;100.00;99747.25;88477;273;25216;-69
2023/12/12 05:36:31;;;;;;;23.30;15.00;;;;;;;-2.15;100.00;99746.96;88274;273;137091;-69
2023/12/12 05:38:33;;;;;;;25.70;15.50;;;;;;;-2.13;100.00;99743.49;88333;273;26259;-69
2023/12/12 05:40:40;;;;;;;23.70;15.00;;;;;;;-2.14;100.00;99741.78;88546;277;137331;-67
2023/12/12 05:42:43;;;;;;;23.30;12.70;;;;;;;-2.15;100.00;99741.52;89247;273;22606;-68
2023/12/12 05:44:45;;;;;;;26.50;15.80;;;;;;;-2.16;100.00;99741.45;88581;273;137136;-65
2023/12/12 05:46:47;;;;;;;25.30;16.30;;;;;;;-2.16;100.00;99745.41;88532;277;22816;-69
2023/12/12 05:48:51;;;;;;;24.40;14.40;;;;;;;-2.13;100.00;99744.89;88300;273;138509;-66
2023/12/12 05:50:54;;;;;;;25.30;15.00;;;;;;;-2.10;100.00;99750.25;88196;283;24076;-70
2023/12/12 05:52:57;;;;;;;29.80;16.30;;;;;;;-2.12;100.00;99749.11;88542;273;137030;-71
2023/12/12 05:54:58;;;;;;;24.30;15.50;;;;;;;-2.07;100.00;99756.10;88441;281;22531;-67
2023/12/12 05:57:00;;;;;;;30.30;17.70;;;;;;;-2.06;100.00;99758.63;88448;273;137367;-68
2023/12/12 05:59:04;;;;;;;29.90;16.60;;;;;;;-2.05;100.00;99760.98;88535;273;25430;-66
2023/12/12 06:01:05;;;;;;;31.80;17.60;;;;;;;-2.04;100.00;99760.85;88495;281;137090;-71
2023/12/12 06:03:08;;;;;;;29.50;16.60;;;;;;;-2.04;100.00;99762.41;88524;277;22718;-73
2023/12/12 06:05:10;;;;;;;27.20;17.80;;;;;;;-2.03;100.00;99752.47;88442;278;137209;-72
2023/12/12 06:07:13;;;;;;;25.60;16.10;;;;;;;-2.02;100.00;99753.89;88623;281;22536;-71
2023/12/12 06:09:16;;;;;;;31.00;18.40;;;;;;;-1.98;100.00;99752.94;88351;281;137032;-69
2023/12/12 06:11:21;;;;;;;31.50;18.10;;;;;;;-1.97;100.00;99755.40;88683;281;24794;-69
2023/12/12 06:13:23;;;;;;;32.70;18.00;;;;;;;-1.95;100.00;99766.05;88472;277;136904;-65
2023/12/12 06:15:25;;;;;;;28.10;16.80;;;;;;;-1.95;100.00;99768.32;88490;274;25236;-71
2023/12/12 06:17:27;;;;;;;37.40;18.80;;;;;;;-1.97;100.00;99762.23;88221;281;137071;-70
2023/12/12 06:19:29;;;;;;;33.50;17.30;;;;;;;-1.97;100.00;99758.42;88446;281;26070;-68
2023/12/12 06:21:32;;;;;;;35.00;17.20;;;;;;;-1.98;100.00;99754.83;88490;281;137132;-67
2023/12/12 06:23:35;;;;;;;33.90;16.60;;;;;;;-1.98;100.00;99759.55;88485;273;24056;-68
2023/12/12 06:25:37;;;;;;;33.80;17.60;;;;;;;-1.99;100.00;99759.05;88392;280;137049;-68
2023/12/12 06:27:39;;;;;;;39.60;21.30;;;;;;;-2.00;100.00;99764.00;88518;273;24017;-68
2023/12/12 06:29:41;;;;;;;38.10;20.30;;;;;;;-1.96;100.00;99770.71;88248;279;136982;-68
2023/12/12 06:31:43;;;;;;;34.50;17.50;;;;;;;-1.92;100.00;99767.43;88368;273;22606;-68
2023/12/12 06:33:45;;;;;;;38.40;19.50;;;;;;;-1.87;100.00;99770.34;88300;273;137295;-70
2023/12/12 06:35:49;;;;;;;30.20;16.80;;;;;;;-1.83;100.00;99772.61;88402;273;24054;-68
2023/12/12 06:37:51;;;;;;;30.80;17.70;;;;;;;-1.81;100.00;99770.65;88335;275;136839;-63
2023/12/12 06:39:53;;;;;;;30.90;18.50;;;;;;;-1.80;100.00;99764.48;88253;279;25185;-68
2023/12/12 06:41:55;;;;;;;28.00;16.20;;;;;;;-1.78;100.00;99763.13;88288;274;136768;-68
2023/12/12 06:43:57;;;;;;;30.10;17.40;;;;;;;-1.78;100.00;99764.38;88425;274;25219;-72
2023/12/12 06:45:59;;;;;;;31.60;17.80;;;;;;;-1.74;100.00;99767.21;88316;274;137307;-67
2023/12/12 06:48:01;;;;;;;30.70;16.60;;;;;;;-1.84;100.00;99743.09;88410;273;23610;-66
2023/12/12 06:50:06;;;;;;;32.20;19.70;;;;;;;-1.67;100.00;99768.23;88584;272;24054;-68
2023/12/12 06:52:09;;;;;;;30.20;17.30;;;;;;;-1.64;100.00;99763.80;88466;277;137172;-67
2023/12/12 06:54:13;;;;;;;31.00;17.00;;;;;;;-1.61;100.00;99764.94;88382;273;22533;-69
2023/12/12 06:56:15;;;;;;;31.60;19.60;;;;;;;-1.61;100.00;99763.84;88344;273;137169;-71
2023/12/12 06:58:17;;;;;;;35.30;22.30;;;;;;;-1.61;100.00;99762.47;88436;277;25213;-70
2023/12/12 07:00:20;;;;;;;31.80;19.10;;;;;;;-1.59;100.00;99760.21;88295;273;137475;-70
2023/12/12 07:02:21;;;;;;;34.90;19.70;;;;;;;-1.56;100.00;99754.56;88397;274;22596;-67
2023/12/12 07:06:51;;;;;;;34.80;20.20;;;;;;;-1.56;100.00;99753.71;86849;305;604825;-70
2023/12/12 07:08:54;;;;;;;30.00;18.50;;;;;;;-1.55;100.00;99755.89;87486;289;137457;-68
2023/12/12 07:10:56;;;;;;;36.60;19.10;;;;;;;-1.52;100.00;99754.98;87915;290;22562;-66
2023/12/12 07:12:59;;;;;;;37.70;20.60;;;;;;;-1.51;100.00;99759.75;87826;283;136471;-67
2023/12/12 07:15:03;;;;;;;36.10;17.70;;;;;;;-1.51;100.00;99755.19;87955;283;22532;-66
2023/12/12 07:17:05;;;;;;;29.60;16.50;;;;;;;-1.49;100.00;99759.40;87931;290;135714;-72
2023/12/12 07:19:07;;;;;;;28.90;16.50;;;;;;;-1.48;100.00;99763.00;87899;284;25090;-67
2023/12/12 07:21:10;;;;;;;28.60;16.30;;;;;;;-1.49;100.00;99763.41;87439;282;720413;-65
2023/12/12 07:23:12;;;;;;;27.50;16.20;;;;;;;-1.47;100.00;99759.14;88320;279;26144;-66
2023/12/12 07:25:20;;;;;;;28.00;16.60;;;;;;;-1.45;100.00;99760.69;88362;277;136662;-62
2023/12/12 07:27:22;;;;;;;28.20;16.60;;;;;;;-1.42;100.00;99764.91;88310;274;22537;-67
2023/12/12 07:29:24;;;;;;;32.40;18.40;;;;;;;-1.41;100.00;99765.36;88335;274;136861;-66
2023/12/12 07:31:26;;;;;;;26.80;14.70;;;;;;;-1.40;100.00;99763.86;88329;278;22887;-73
2023/12/12 07:33:27;;;;;;;28.50;16.20;;;;;;;-1.40;100.00;99760.58;88255;281;138231;-68
2023/12/12 07:35:30;;;;;;;29.30;16.30;;;;;;;-1.40;100.00;99764.63;88418;277;24062;-70
2023/12/12 07:37:32;;;;;;;28.30;17.40;;;;;;;-1.41;100.00;99762.98;88196;279;136266;-68
2023/12/12 07:39:34;;;;;;;31.00;18.40;;;;;;;-1.41;100.00;99768.51;88367;273;22549;-70
2023/12/12 07:41:37;;;;;;;32.10;18.00;;;;;;;-1.44;100.00;99774.36;88233;275;136300;-69
2023/12/12 07:43:39;;;;;;;29.80;18.10;;;;;;;-1.49;100.00;99772.65;88649;278;22470;-65
2023/12/12 07:45:41;;;;;;;33.30;18.70;;;;;;;-1.53;100.00;99771.29;88396;278;136714;-66
2023/12/12 07:47:43;;;;;;;36.10;18.30;;;;;;;-1.55;100.00;99775.09;88340;275;22562;-77
2023/12/12 07:49:45;;;;;;;30.90;19.70;;;;;;;-1.56;100.00;99780.02;88251;280;136954;-78
2023/12/12 07:51:49;;;;;;;32.50;20.10;;;;;;;-1.55;100.00;99782.36;88446;280;25233;-66
2023/12/12 07:53:51;;;;;;;35.60;21.80;;;;;;;-1.55;100.00;99784.29;88354;275;136907;-68
2023/12/12 07:55:54;;;;;;;36.60;21.40;;;;;;;-1.53;100.00;99781.71;88399;281;23003;-69
2023/12/12 07:57:58;;;;;;;40.80;21.70;;;;;;;-1.52;100.00;99779.50;88214;278;136494;-71
2023/12/12 08:00:00;;;;;;;35.50;20.70;;;;;;;-1.51;100.00;99785.94;88549;274;24074;-66
2023/12/12 08:02:11;;;;;;;38.20;22.20;;;;;;;-1.53;100.00;99785.73;88754;278;22545;-73
2023/12/12 08:04:13;;;;;;;34.70;20.70;;;;;;;-1.55;100.00;99787.11;88301;281;137116;-65
2023/12/12 08:06:16;;;;;;;38.40;20.00;;;;;;;-1.56;100.00;99782.52;88501;274;24032;-62
2023/12/12 08:08:22;;;;;;;34.00;20.40;;;;;;;-1.55;100.00;99786.02;88461;274;137023;-68
2023/12/12 08:10:24;;;;;;;33.60;20.60;;;;;;;-1.51;100.00;99786.60;88431;273;22530;-57
2023/12/12 08:12:26;;;;;;;36.60;19.90;;;;;;;-1.57;100.00;99766.52;88334;273;136811;-66
2023/12/12 08:14:28;;;;;;;31.10;17.90;;;;;;;-1.44;100.00;99788.63;88416;275;22549;-75
2023/12/12 08:16:31;;;;;;;27.70;18.10;;;;;;;-1.40;100.00;99785.02;88833;275;136580;-75
2023/12/12 08:18:33;;;;;;;28.60;16.30;;;;;;;-1.41;100.00;99791.48;89135;274;22571;-78
2023/12/12 08:20:35;;;;;;;22.10;13.50;;;;;;;-1.43;100.00;99795.67;88914;281;137236;-74
2023/12/12 08:22:37;;;;;;;24.20;14.60;;;;;;;-1.44;100.00;99799.27;89053;281;22525;-74
2023/12/12 08:24:39;;;;;;;23.30;15.00;;;;;;;-1.43;100.00;99802.30;89021;282;136554;-73
2023/12/12 08:26:43;;;;;;;28.20;16.20;;;;;;;-1.43;100.00;99796.20;88834;274;22545;-72
2023/12/12 08:28:45;;;;;;;22.90;15.00;;;;;;;-1.43;100.00;99797.96;88699;278;136516;-74
2023/12/12 08:30:47;;;;;;;24.20;15.10;;;;;;;-1.47;100.00;99795.20;89007;278;22545;-71
2023/12/12 08:32:50;;;;;;;21.90;14.60;;;;;;;-1.51;100.00;99793.02;88330;274;137114;-74
2023/12/12 08:34:52;;;;;;;22.40;15.00;;;;;;;-1.59;100.00;99791.92;88909;273;22534;-73
2023/12/12 08:36:55;;;;;;;24.10;16.00;;;;;;;-1.66;100.00;99787.29;88575;274;137756;-71
2023/12/12 08:38:59;;;;;;;24.40;13.50;;;;;;;-1.65;100.00;99784.44;88951;273;22514;-72
2023/12/12 08:41:01;;;;;;;19.60;12.40;;;;;;;-1.65;100.00;99788.22;88757;273;137586;-78
2023/12/12 08:43:03;;;;;;;25.30;14.30;;;;;;;-1.67;100.00;99788.96;88810;275;24054;-70
2023/12/12 08:45:05;;;;;;;26.40;15.80;;;;;;;-1.66;100.00;99790.23;88247;274;136745;-74
2023/12/12 08:47:07;;;;;;;19.50;12.20;;;;;;;-1.61;100.00;99795.08;88317;274;22539;-74
2023/12/12 08:49:09;;;;;;;23.30;13.10;;;;;;;-1.55;100.00;99788.80;88425;274;136514;-73
2023/12/12 08:51:12;;;;;;;16.50;11.20;;;;;;;-1.54;100.00;99783.22;88999;274;25144;-71
2023/12/12 08:53:15;;;;;;;22.80;12.30;;;;;;;-1.51;100.00;99782.75;88303;281;136756;-73
2023/12/12 08:55:18;;;;;;;19.20;10.30;;;;;;;-1.49;100.00;99780.89;89176;274;22622;-73
2023/12/12 08:57:20;;;;;;;18.20;11.50;;;;;;;-1.59;100.00;99770.52;89017;275;137596;-73
2023/12/12 08:59:22;;;;;;;22.80;12.80;;;;;;;-1.62;100.00;99776.70;88465;274;22534;-74
2023/12/12 09:01:24;;;;;;;18.90;11.70;;;;;;;-1.66;100.00;99767.61;88867;278;137749;-73
2023/12/12 09:03:26;;;;;;;19.80;11.80;;;;;;;-1.70;100.00;99768.75;88792;275;22536;-71
2023/12/12 09:05:28;;;;;;;24.90;14.70;;;;;;;-1.69;100.00;99764.02;88798;281;139079;-76
2023/12/12 09:07:30;;;;;;;23.70;14.20;;;;;;;-1.68;100.00;99767.20;88956;279;25594;-75
2023/12/12 09:09:33;;;;;;;22.90;14.20;;;;;;;-1.67;100.00;99770.64;88701;273;136356;-75
2023/12/12 09:11:35;;;;;;;23.60;15.00;;;;;;;-1.66;100.00;99776.29;88868;274;24023;-72
2023/12/12 09:13:37;;;;;;;20.30;13.90;;;;;;;-1.64;100.00;99783.27;88305;274;136511;-71
2023/12/12 09:15:40;;;;;;;23.40;14.90;;;;;;;-1.61;100.00;99784.63;88543;281;22540;-77
2023/12/12 09:17:42;;;;;;;24.60;15.70;;;;;;;-1.56;100.00;99785.64;88340;274;136668;-73
2023/12/12 09:19:48;;;;;;;21.70;13.90;;;;;;;-1.62;100.00;99766.89;89022;275;24181;-75
2023/12/12 09:21:51;;;;;;;17.50;12.40;;;;;;;-1.61;100.00;99767.37;89113;278;136402;-74
2023/12/12 09:23:53;;;;;;;20.50;11.70;;;;;;;-1.63;100.00;99767.88;88652;278;24093;-73